Terminal Aerodrome Forecast
Issued by NWS

Home | Current Version | Previous Version | Text Only | Print | Product List | Glossary On
Versions: 1 2 3 4 5 6 7 8 9 10 11 12 13 14 15 16 17 18 19 20 21 22 23 24 25 26 27 28 29 30 31 32 33 34 35 36 37 38 39 40 41 42 43 44 45 46 47 48 49 50
000
FTUS45 KBOU 271739
TAFBJC
TAF
KBJC 271739Z 2718/2818 01012KT P6SM VCTS SCT020 BKN030CB OVC050
      TEMPO 2718/2720 5SM SHRA BKN020
     FM272000 01010KT P6SM VCSH SCT030 BKN060
      TEMPO 2720/2723 -SHRA BKN030
     FM280100 34006KT P6SM SCT030 BKN060
     FM280400 28006KT P6SM FEW060 SCT120
     FM281400 32007KT P6SM FEW140=

USA.gov is the U.S. government's official web portal to all federal, state and local government web resources and services.